Nearby METAR Reports

KLWM - Lawrence,MA, USA
Distance from station: NE 12mi, 19km
Updated: Sat, 23-Feb-2019 1:54am EST
Clear
Clear
 Wind from WNW
Wind: WNW 3 mph , 6 km/h
Temperature: 28°F , -2°C
Dew Point: 18°F , -8°C
Humidity: 64%
Barometer: 30.49 inHg , 1032.5 hPa
Clouds: Clear
Visibility: 10 miles , 16 km
2019/02/23 06:54 KLWM 230654Z AUTO 30003KT 10SM CLR M02/M08 A3049 RMK AO2 SLP326 T10171083
KBED - Bedford,MA, USA
Distance from station: SSE 12mi, 19km
Updated: Sat, 23-Feb-2019 1:56am EST
Clear
Clear
 Wind from calm
Wind: Calm
Temperature: 27°F , -3°C
Dew Point: 18°F , -8°C
Humidity: 69%
Barometer: 30.46 inHg , 1031.5 hPa
Clouds: Clear
Visibility: 10 miles , 16 km
2019/02/23 06:56 KBED 230656Z AUTO 00000KT 10SM CLR M03/M08 A3046 RMK AO2 SLP332 T10331083

Metar display script from Saratoga-Weather.org